Time;durP1;ratioP1;P1;durP2;ratioP2;P2;SDS_P1;SDS_P2;PMS_P1;PMS_P2;Temp;Humidity;BMP_temperature;BMP_pressure;BME280_temperature;BME280_humidity;BME280_pressure;Samples;Min_cycle;Max_cycle;Signal;HPM_P1;HPM_P2
2021/06/06 00:01:19;;;;;;;40.90;31.63;;;16.70;99.90;;;;;;5055497;28;20460;-72
2021/06/06 00:03:48;;;;;;;40.50;31.10;;;16.60;99.90;;;;;;5055206;28;20245;-72
2021/06/06 00:06:17;;;;;;;41.33;30.77;;;16.60;99.90;;;;;;5054479;28;20942;-73
2021/06/06 00:08:43;;;;;;;40.23;31.90;;;16.60;99.90;;;;;;5054237;28;20427;-72
2021/06/06 00:11:17;;;;;;;47.47;33.70;;;16.60;99.90;;;;;;5054915;28;20416;-72
2021/06/06 00:13:43;;;;;;;43.23;31.50;;;16.50;99.90;;;;;;5054704;28;20180;-72
2021/06/06 00:16:16;;;;;;;43.30;33.57;;;16.50;99.90;;;;;;5054931;28;20432;-72
2021/06/06 00:18:42;;;;;;;45.43;33.83;;;16.40;99.90;;;;;;5054235;28;20436;-73
2021/06/06 00:21:09;;;;;;;46.87;33.70;;;16.30;99.90;;;;;;5054681;28;20499;-72
2021/06/06 00:23:34;;;;;;;51.60;35.40;;;16.30;99.90;;;;;;5054461;28;20438;-71
2021/06/06 00:26:01;;;;;;;49.60;34.40;;;16.50;99.90;;;;;;5054999;28;20773;-72
2021/06/06 00:28:27;;;;;;;47.60;34.80;;;16.60;99.90;;;;;;5052898;28;20174;-72
2021/06/06 00:30:53;;;;;;;49.88;36.88;;;16.60;99.90;;;;;;5054081;28;20464;-73
2021/06/06 00:33:18;;;;;;;54.50;36.83;;;16.50;99.90;;;;;;5054140;28;20174;-73
2021/06/06 00:35:44;;;;;;;55.47;39.57;;;16.50;99.90;;;;;;5054273;28;20192;-72
2021/06/06 00:38:09;;;;;;;57.20;38.17;;;16.40;99.90;;;;;;5053098;28;20182;-72
2021/06/06 00:40:37;;;;;;;59.07;39.57;;;16.50;99.90;;;;;;5053546;28;20228;-72
2021/06/06 00:43:06;;;;;;;67.63;44.27;;;16.20;99.90;;;;;;5053987;28;20659;-74
2021/06/06 00:45:34;;;;;;;67.13;42.70;;;15.90;99.90;;;;;;5052845;28;20433;-72
2021/06/06 00:48:00;;;;;;;62.43;41.40;;;15.60;99.90;;;;;;5054424;28;20837;-72
2021/06/06 00:50:32;;;;;;;64.90;42.03;;;15.60;99.90;;;;;;5053980;28;20423;-73
2021/06/06 00:53:03;;;;;;;68.53;44.67;;;15.60;99.90;;;;;;5053504;28;20408;-73
2021/06/06 00:55:29;;;;;;;65.67;42.47;;;15.60;99.90;;;;;;5053941;28;20421;-72
2021/06/06 00:57:55;;;;;;;64.13;42.10;;;15.80;99.90;;;;;;5052915;28;20432;-72
2021/06/06 01:00:29;;;;;;;72.37;45.93;;;15.70;99.90;;;;;;5054041;28;20441;-72
2021/06/06 01:02:55;;;;;;;70.80;43.50;;;15.60;99.90;;;;;;5054002;28;20438;-73
2021/06/06 01:05:20;;;;;;;74.77;44.20;;;15.50;99.90;;;;;;5051822;28;20727;-72
2021/06/06 01:07:46;;;;;;;69.27;45.80;;;15.40;99.90;;;;;;5052578;28;20280;-73
2021/06/06 01:10:12;;;;;;;70.87;44.63;;;15.40;99.90;;;;;;5053540;28;20178;-73
2021/06/06 01:12:44;;;;;;;53.80;37.07;;;15.50;99.90;;;;;;5053584;28;20182;-71
2021/06/06 01:15:16;;;;;;;51.00;35.90;;;15.60;99.90;;;;;;5053893;28;20214;-71
2021/06/06 01:17:44;;;;;;;52.00;35.47;;;15.50;99.90;;;;;;5053872;28;20447;-71
2021/06/06 01:20:13;;;;;;;57.23;38.47;;;15.60;99.90;;;;;;5052374;28;20484;-71
2021/06/06 01:23:02;;;;;;;56.97;39.37;;;15.60;99.90;;;;;;5052975;28;20420;-72
2021/06/06 01:25:30;;;;;;;60.20;39.70;;;15.60;99.90;;;;;;5044344;28;20525;-72
2021/06/06 01:28:14;;;;;;;62.13;41.90;;;15.50;99.90;;;;;;5053491;28;20424;-72
2021/06/06 01:30:46;;;;;;;59.67;40.10;;;15.60;99.90;;;;;;5052148;28;20514;-72
2021/06/06 01:33:24;;;;;;;60.77;40.70;;;15.70;99.90;;;;;;5053023;28;20397;-72
2021/06/06 01:35:57;;;;;;;64.77;39.67;;;15.80;99.90;;;;;;5053451;28;20485;-71
2021/06/06 01:38:36;;;;;;;62.17;39.30;;;15.90;99.90;;;;;;5053302;28;20432;-72
2021/06/06 01:41:09;;;;;;;57.80;38.73;;;15.80;99.90;;;;;;5053417;28;20460;-71
2021/06/06 01:43:39;;;;;;;55.77;39.47;;;15.80;99.90;;;;;;5053496;28;20454;-71
2021/06/06 01:46:08;;;;;;;56.88;42.80;;;15.80;99.90;;;;;;5051876;28;20586;-72
2021/06/06 01:48:36;;;;;;;51.87;37.07;;;15.80;99.90;;;;;;5052072;28;20632;-71
2021/06/06 01:51:07;;;;;;;54.63;36.57;;;15.80;99.90;;;;;;5053420;28;20464;-72
2021/06/06 01:53:35;;;;;;;53.05;39.88;;;15.90;99.90;;;;;;5051785;28;20514;-72
2021/06/06 01:56:05;;;;;;;54.30;36.40;;;16.00;99.90;;;;;;5055938;28;20260;-72
2021/06/06 01:58:31;;;;;;;46.63;33.37;;;16.10;99.90;;;;;;5075766;28;20425;-72
2021/06/06 02:01:24;;;;;;;44.40;33.73;;;16.20;99.90;;;;;;5064852;28;20839;-72
2021/06/06 02:03:52;;;;;;;48.00;32.57;;;16.10;99.90;;;;;;5036849;28;20743;-72
2021/06/06 02:06:21;;;;;;;49.17;34.20;;;16.00;99.90;;;;;;5037124;28;20434;-72
2021/06/06 02:08:47;;;;;;;47.67;33.67;;;15.80;99.90;;;;;;5036755;28;20883;-72
2021/06/06 02:11:31;;;;;;;42.40;32.40;;;15.50;99.90;;;;;;5036728;28;20945;-72
2021/06/06 02:14:04;;;;;;;46.17;34.13;;;15.50;99.90;;;;;;5056403;28;20926;-72
2021/06/06 02:16:34;;;;;;;44.10;32.77;;;15.40;99.90;;;;;;5057170;28;20945;-72
2021/06/06 02:18:59;;;;;;;58.10;36.33;;;15.40;99.90;;;;;;5056560;28;20405;-72
2021/06/06 02:21:25;;;;;;;58.47;40.20;;;15.50;99.90;;;;;;5065611;28;20460;-71
2021/06/06 02:23:51;;;;;;;63.67;40.90;;;15.50;99.90;;;;;;5076104;28;20162;-72
2021/06/06 02:26:20;;;;;;;64.70;42.03;;;15.40;99.90;;;;;;5055621;28;20502;-72
2021/06/06 02:28:52;;;;;;;63.13;42.03;;;15.30;99.90;;;;;;5056554;28;20476;-72
2021/06/06 02:31:47;;;;;;;57.93;38.30;;;15.20;99.90;;;;;;5056565;28;20437;-72
2021/06/06 02:34:21;;;;;;;52.07;38.47;;;15.10;99.90;;;;;;5056391;28;20427;-71
2021/06/06 02:36:59;;;;;;;54.03;37.40;;;15.20;99.90;;;;;;5057733;28;20446;-72
2021/06/06 02:39:32;;;;;;;53.73;35.90;;;15.20;99.90;;;;;;5059919;28;20415;-72
2021/06/06 02:42:05;;;;;;;63.67;40.13;;;15.30;99.90;;;;;;5057168;28;20413;-72
2021/06/06 02:44:41;;;;;;;72.60;45.90;;;15.30;99.90;;;;;;5055902;28;20412;-72
2021/06/06 02:47:10;;;;;;;84.93;51.33;;;15.20;99.90;;;;;;5056999;28;20426;-72
2021/06/06 02:49:39;;;;;;;87.57;52.63;;;15.10;99.90;;;;;;5056202;28;20451;-72
2021/06/06 02:52:11;;;;;;;104.60;58.63;;;15.20;99.90;;;;;;5056147;28;20404;-72
2021/06/06 02:54:46;;;;;;;110.07;60.10;;;15.30;99.90;;;;;;5055667;28;20413;-72
2021/06/06 02:57:14;;;;;;;109.93;62.83;;;15.30;99.90;;;;;;5056466;28;20404;-72
2021/06/06 02:59:58;;;;;;;105.03;62.60;;;15.30;99.90;;;;;;5056328;28;20825;-72
2021/06/06 03:02:30;;;;;;;110.57;60.07;;;15.10;99.90;;;;;;5062375;28;20437;-72
2021/06/06 03:04:59;;;;;;;111.47;62.87;;;15.10;99.90;;;;;;5056233;28;20456;-72
2021/06/06 03:07:39;;;;;;;118.13;64.07;;;15.00;99.90;;;;;;5054835;28;20416;-72
2021/06/06 03:10:07;;;;;;;123.03;62.80;;;14.90;99.90;;;;;;5056172;28;20491;-72
2021/06/06 03:12:34;;;;;;;118.13;63.70;;;14.80;99.90;;;;;;5056010;28;20413;-71
2021/06/06 03:15:03;;;;;;;122.40;63.60;;;14.80;99.90;;;;;;5055468;28;20983;-71
2021/06/06 03:17:36;;;;;;;112.00;62.57;;;14.80;99.90;;;;;;5056284;28;20913;-71
2021/06/06 03:20:10;;;;;;;109.47;58.63;;;14.80;99.90;;;;;;5058196;28;20790;-71
2021/06/06 03:22:38;;;;;;;123.07;62.00;;;14.80;99.90;;;;;;5057576;28;20424;-71
2021/06/06 03:25:10;;;;;;;112.70;57.70;;;14.80;99.90;;;;;;5057043;28;20425;-71
2021/06/06 03:27:40;;;;;;;94.97;55.23;;;15.00;99.90;;;;;;5055464;28;20415;-72
2021/06/06 03:30:11;;;;;;;105.60;54.50;;;15.00;99.90;;;;;;5055978;28;20401;-72
2021/06/06 03:32:39;;;;;;;101.80;56.03;;;14.90;99.90;;;;;;5056192;28;20504;-72
2021/06/06 03:35:07;;;;;;;106.77;54.83;;;14.80;99.90;;;;;;5054465;28;20444;-71
2021/06/06 03:37:34;;;;;;;92.80;50.30;;;14.90;99.90;;;;;;5054663;28;20470;-72
2021/06/06 03:40:00;;;;;;;92.73;52.03;;;14.90;99.90;;;;;;5055678;28;20490;-72
2021/06/06 03:42:26;;;;;;;93.57;53.40;;;14.80;99.90;;;;;;5055202;28;20405;-73
2021/06/06 03:44:51;;;;;;;94.40;49.87;;;14.80;99.90;;;;;;5055668;28;20429;-72
2021/06/06 03:47:18;;;;;;;85.53;49.47;;;14.80;99.90;;;;;;5056706;28;20424;-72
2021/06/06 03:49:43;;;;;;;87.68;47.55;;;14.90;99.90;;;;;;5054630;28;20830;-72
2021/06/06 03:52:09;;;;;;;84.70;47.60;;;14.80;99.90;;;;;;5055216;28;20235;-72
2021/06/06 03:54:35;;;;;;;84.97;48.20;;;14.80;99.90;;;;;;5052387;28;20634;-72
2021/06/06 03:57:02;;;;;;;80.87;48.77;;;14.90;99.90;;;;;;5049469;28;20335;-72
2021/06/06 03:59:28;;;;;;;97.23;52.40;;;14.90;99.90;;;;;;5054547;28;20472;-72
2021/06/06 04:01:54;;;;;;;89.10;49.60;;;14.80;99.90;;;;;;5054526;28;20895;-72
2021/06/06 04:04:19;;;;;;;78.40;45.10;;;14.80;99.90;;;;;;5054874;28;20405;-72
2021/06/06 04:06:46;;;;;;;89.60;48.73;;;14.70;99.90;;;;;;5054315;28;20180;-72
2021/06/06 04:09:11;;;;;;;91.07;50.20;;;14.70;99.90;;;;;;5052770;28;20304;-73
2021/06/06 04:11:38;;;;;;;79.73;46.40;;;14.80;99.90;;;;;;5054941;28;20432;-72
2021/06/06 04:14:05;;;;;;;71.00;41.93;;;14.80;99.90;;;;;;5054213;28;20408;-72
2021/06/06 04:16:31;;;;;;;67.27;41.50;;;14.70;99.90;;;;;;5054636;28;20467;-72
2021/06/06 04:18:57;;;;;;;67.20;41.33;;;14.70;99.90;;;;;;5053717;28;20425;-72
2021/06/06 04:21:25;;;;;;;63.90;39.40;;;14.70;99.90;;;;;;5054279;28;20452;-72
2021/06/06 04:23:51;;;;;;;60.83;38.27;;;14.70;99.90;;;;;;5052767;28;20512;-72
2021/06/06 04:26:17;;;;;;;58.80;36.67;;;14.80;99.90;;;;;;5054056;28;20511;-72
2021/06/06 04:28:43;;;;;;;67.60;39.50;;;14.70;99.90;;;;;;5053653;28;20181;-72
2021/06/06 04:31:10;;;;;;;56.83;37.63;;;14.80;99.90;;;;;;5054401;28;20404;-72
2021/06/06 04:33:36;;;;;;;56.20;36.97;;;14.80;99.90;;;;;;5053865;28;20254;-72
2021/06/06 04:36:02;;;;;;;51.27;35.37;;;14.80;99.90;;;;;;5053834;28;20996;-72
2021/06/06 04:38:29;;;;;;;50.50;33.60;;;14.80;99.90;;;;;;5053772;28;20175;-72
2021/06/06 04:40:57;;;;;;;54.03;39.47;;;14.90;99.90;;;;;;5051750;28;20517;-72
2021/06/06 04:43:23;;;;;;;50.63;35.33;;;14.90;99.90;;;;;;5053801;28;20257;-72
2021/06/06 04:45:50;;;;;;;51.17;34.67;;;14.90;99.90;;;;;;5052718;28;20424;-72
2021/06/06 04:48:17;;;;;;;44.40;31.27;;;14.90;99.90;;;;;;5053856;28;20436;-72
2021/06/06 04:50:44;;;;;;;44.33;30.97;;;14.90;99.90;;;;;;5053644;28;20416;-72
2021/06/06 04:53:11;;;;;;;44.73;31.47;;;15.00;99.90;;;;;;5053706;28;20936;-72
2021/06/06 04:55:36;;;;;;;41.00;30.30;;;15.10;99.90;;;;;;5054606;28;20913;-71
2021/06/06 04:58:03;;;;;;;45.63;32.90;;;15.10;99.90;;;;;;5060222;28;20475;-72
2021/06/06 05:00:31;;;;;;;45.40;31.80;;;15.10;99.90;;;;;;5057381;28;20587;-72
2021/06/06 05:02:57;;;;;;;46.30;30.70;;;15.00;99.90;;;;;;5059064;28;20393;-72
2021/06/06 05:05:23;;;;;;;45.97;31.97;;;15.00;99.90;;;;;;5056724;28;20439;-73
2021/06/06 05:07:52;;;;;;;46.83;33.30;;;15.00;99.90;;;;;;5055163;28;20734;-72
2021/06/06 05:10:18;;;;;;;50.73;33.13;;;15.00;99.90;;;;;;5060732;28;20437;-71
2021/06/06 05:12:44;;;;;;;41.53;30.60;;;15.00;99.90;;;;;;5071713;28;20448;-71
2021/06/06 05:15:10;;;;;;;47.77;34.10;;;15.00;99.90;;;;;;5060677;28;20398;-72
2021/06/06 05:17:36;;;;;;;42.60;31.03;;;15.00;99.90;;;;;;5066352;28;20192;-72
2021/06/06 05:20:06;;;;;;;39.37;29.50;;;15.10;99.90;;;;;;5066407;28;20492;-73
2021/06/06 05:22:32;;;;;;;42.53;30.05;;;15.10;99.90;;;;;;5066001;28;20427;-72
2021/06/06 05:24:57;;;;;;;45.20;32.00;;;15.10;99.90;;;;;;5062317;28;20243;-72
2021/06/06 05:27:23;;;;;;;44.30;29.50;;;15.10;99.90;;;;;;5058997;28;20503;-71
2021/06/06 05:29:49;;;;;;;40.53;29.07;;;15.20;99.90;;;;;;5060880;28;20174;-72
2021/06/06 05:32:15;;;;;;;48.07;32.40;;;15.30;99.90;;;;;;5064399;28;20423;-72
2021/06/06 05:34:42;;;;;;;45.10;30.33;;;15.20;99.90;;;;;;5069872;28;20218;-70
2021/06/06 05:37:09;;;;;;;42.40;29.30;;;15.30;99.90;;;;;;5077238;28;20186;-72
2021/06/06 05:39:35;;;;;;;41.27;30.33;;;15.50;99.90;;;;;;5066930;28;20436;-72
2021/06/06 05:42:01;;;;;;;39.37;27.70;;;15.60;99.90;;;;;;5064226;28;20397;-72
2021/06/06 05:44:26;;;;;;;39.00;27.07;;;15.70;99.90;;;;;;5060924;28;20443;-72
2021/06/06 05:46:52;;;;;;;31.80;26.10;;;15.70;99.90;;;;;;5069281;28;20190;-72
2021/06/06 05:49:18;;;;;;;32.53;23.97;;;15.70;99.90;;;;;;5081735;28;20212;-72
2021/06/06 05:51:43;;;;;;;38.83;26.50;;;15.70;99.90;;;;;;5078651;28;20209;-72
2021/06/06 05:54:09;;;;;;;34.80;27.40;;;15.60;99.90;;;;;;5063078;28;20270;-72
2021/06/06 05:56:34;;;;;;;35.30;25.53;;;15.60;99.90;;;;;;5061953;28;20257;-71
2021/06/06 05:59:00;;;;;;;30.37;25.43;;;15.70;99.90;;;;;;5060229;28;20194;-71
2021/06/06 06:01:26;;;;;;;32.37;25.30;;;15.50;99.90;;;;;;5057489;28;20619;-72
2021/06/06 06:03:51;;;;;;;31.27;23.93;;;15.50;99.90;;;;;;5056907;28;20217;-72
2021/06/06 06:06:17;;;;;;;33.00;24.65;;;15.40;99.90;;;;;;5036465;28;20405;-72
2021/06/06 06:08:44;;;;;;;28.60;22.37;;;15.30;99.90;;;;;;5037592;28;20191;-72
2021/06/06 06:11:13;;;;;;;30.10;24.20;;;15.40;99.90;;;;;;5037429;28;20649;-72
2021/06/06 06:13:39;;;;;;;31.60;24.33;;;15.50;99.90;;;;;;5036747;28;20413;-73
2021/06/06 06:16:08;;;;;;;31.37;24.43;;;15.50;99.90;;;;;;5046809;28;20807;-72
2021/06/06 06:18:34;;;;;;;29.33;22.37;;;15.60;99.90;;;;;;5039498;28;20194;-72
2021/06/06 06:21:00;;;;;;;31.30;23.37;;;15.50;99.90;;;;;;5048575;28;20472;-72
2021/06/06 06:23:27;;;;;;;30.40;24.20;;;15.60;99.90;;;;;;5045892;28;20417;-72
2021/06/06 06:25:54;;;;;;;28.40;23.97;;;15.60;99.90;;;;;;5055197;28;20439;-72
2021/06/06 06:28:20;;;;;;;33.60;23.70;;;15.60;99.90;;;;;;5056893;28;20462;-72
2021/06/06 06:30:46;;;;;;;30.37;25.50;;;15.70;99.90;;;;;;5051453;28;20959;-73
2021/06/06 06:33:11;;;;;;;30.57;24.03;;;15.60;99.90;;;;;;5041789;28;20489;-71
2021/06/06 06:35:38;;;;;;;33.63;25.63;;;15.60;99.90;;;;;;5050193;28;20235;-72
2021/06/06 06:38:05;;;;;;;35.53;25.97;;;15.60;99.90;;;;;;5055506;28;20174;-72
2021/06/06 06:40:31;;;;;;;35.00;27.17;;;15.60;99.90;;;;;;5056463;28;20456;-71
2021/06/06 06:42:57;;;;;;;39.67;29.10;;;15.50;99.90;;;;;;5054691;28;20510;-72
2021/06/06 06:45:27;;;;;;;36.37;28.20;;;15.60;99.90;;;;;;5054975;28;20463;-71
2021/06/06 06:48:02;;;;;;;43.33;29.93;;;15.70;99.90;;;;;;5055526;28;20516;-72
2021/06/06 06:50:28;;;;;;;41.57;30.33;;;15.70;99.90;;;;;;5056161;28;20487;-72
2021/06/06 06:52:56;;;;;;;42.87;29.60;;;15.80;99.90;;;;;;5054059;28;20440;-72
2021/06/06 06:55:22;;;;;;;44.63;31.17;;;15.90;99.90;;;;;;5055451;28;20420;-72
2021/06/06 06:57:48;;;;;;;40.80;29.10;;;15.90;99.90;;;;;;5053192;28;20697;-72
2021/06/06 07:00:22;;;;;;;37.03;28.37;;;15.90;99.90;;;;;;5054356;28;20452;-73
2021/06/06 07:02:47;;;;;;;38.30;26.20;;;16.00;99.90;;;;;;5054067;28;20248;-72
2021/06/06 07:05:14;;;;;;;36.07;27.60;;;15.90;99.90;;;;;;5055176;28;20841;-71
2021/06/06 07:07:40;;;;;;;32.93;25.40;;;16.00;99.90;;;;;;5053325;28;20530;-73
2021/06/06 07:10:08;;;;;;;34.53;26.27;;;15.90;99.90;;;;;;5054918;28;20424;-72
2021/06/06 07:12:34;;;;;;;35.57;25.37;;;16.00;99.90;;;;;;5054742;28;20219;-72
2021/06/06 07:14:59;;;;;;;32.90;25.60;;;16.00;99.90;;;;;;5054386;28;20476;-72
2021/06/06 07:17:25;;;;;;;33.10;25.90;;;15.90;99.90;;;;;;5054046;28;20181;-71
2021/06/06 07:19:51;;;;;;;32.67;26.80;;;15.80;99.90;;;;;;5054778;28;20194;-71
2021/06/06 07:22:17;;;;;;;36.70;26.27;;;15.80;99.90;;;;;;5054607;28;20186;-70
2021/06/06 07:24:42;;;;;;;34.80;25.93;;;15.80;99.90;;;;;;5053776;28;20240;-71
2021/06/06 07:27:08;;;;;;;33.60;28.30;;;15.70;99.90;;;;;;5054515;28;20780;-72
2021/06/06 07:29:34;;;;;;;33.60;27.47;;;15.90;99.90;;;;;;5054495;28;20753;-72
2021/06/06 07:32:02;;;;;;;32.00;26.30;;;16.00;99.90;;;;;;5053340;28;20533;-73
2021/06/06 07:34:29;;;;;;;33.13;25.40;;;16.00;99.90;;;;;;5048511;28;20456;-73
2021/06/06 07:37:03;;;;;;;37.07;29.00;;;16.00;99.90;;;;;;5044315;28;20436;-74
2021/06/06 07:39:29;;;;;;;38.40;27.13;;;16.00;99.90;;;;;;5046877;28;20476;-71
2021/06/06 07:41:54;;;;;;;36.57;28.70;;;16.10;99.90;;;;;;5054505;28;20983;-72
2021/06/06 07:44:21;;;;;;;34.97;27.70;;;16.10;99.90;;;;;;5053222;28;20505;-71
2021/06/06 07:46:48;;;;;;;36.80;28.43;;;16.20;99.90;;;;;;5051926;28;20252;-71
2021/06/06 07:49:14;;;;;;;37.10;28.90;;;16.30;99.90;;;;;;5046330;28;20441;-75
2021/06/06 07:51:40;;;;;;;36.63;28.80;;;16.30;99.90;;;;;;5057798;28;20440;-71
2021/06/06 07:54:06;;;;;;;37.23;29.07;;;16.20;99.90;;;;;;5066833;28;20457;-71
2021/06/06 07:56:31;;;;;;;36.37;28.47;;;16.20;99.90;;;;;;5053916;28;20674;-71
2021/06/06 07:58:57;;;;;;;35.87;28.60;;;16.20;99.90;;;;;;5063009;28;20451;-73
2021/06/06 08:01:23;;;;;;;38.13;28.33;;;16.20;99.90;;;;;;5067242;28;20190;-73
2021/06/06 08:03:50;;;;;;;38.10;29.47;;;16.10;99.90;;;;;;5053698;28;20591;-75
2021/06/06 08:06:15;;;;;;;39.07;29.33;;;16.10;99.90;;;;;;5044226;28;20639;-71
2021/06/06 08:08:41;;;;;;;40.30;30.90;;;16.10;99.90;;;;;;5073581;28;20416;-71
2021/06/06 08:11:08;;;;;;;42.27;31.53;;;16.30;99.90;;;;;;5074329;28;20588;-72
2021/06/06 08:13:34;;;;;;;46.10;33.60;;;16.20;99.90;;;;;;5057072;28;20190;-74
2021/06/06 08:16:00;;;;;;;43.50;33.47;;;16.20;99.90;;;;;;5054309;28;20737;-73
2021/06/06 08:18:35;;;;;;;45.60;33.93;;;16.30;99.90;;;;;;5053718;28;20543;-73
2021/06/06 08:21:11;;;;;;;42.00;32.87;;;16.40;99.90;;;;;;5054003;28;20512;-73
2021/06/06 08:23:37;;;;;;;44.93;32.90;;;16.40;99.90;;;;;;5064660;28;20435;-72
2021/06/06 08:26:04;;;;;;;44.43;33.67;;;16.50;99.90;;;;;;5085418;28;20444;-72
2021/06/06 08:28:30;;;;;;;47.37;35.70;;;16.50;99.90;;;;;;5065064;28;20420;-72
2021/06/06 08:31:03;;;;;;;45.93;35.43;;;16.50;99.90;;;;;;5062927;28;20421;-73
2021/06/06 08:33:31;;;;;;;47.07;36.30;;;16.60;99.90;;;;;;5060528;28;20427;-73
2021/06/06 08:36:00;;;;;;;44.50;33.97;;;16.50;99.90;;;;;;5068205;28;20452;-73
2021/06/06 08:38:27;;;;;;;50.07;35.80;;;16.30;99.90;;;;;;5068233;28;20416;-73
2021/06/06 08:41:12;;;;;;;46.13;34.47;;;16.20;99.90;;;;;;5071351;28;20521;-73
2021/06/06 08:43:50;;;;;;;44.70;34.17;;;16.10;99.90;;;;;;5070285;28;20408;-72
2021/06/06 08:46:18;;;;;;;47.10;33.93;;;16.10;99.90;;;;;;5055746;28;20441;-74
2021/06/06 08:48:44;;;;;;;49.90;33.63;;;16.00;99.90;;;;;;5054870;28;20425;-71
2021/06/06 08:51:41;;;;;;;53.07;35.60;;;16.10;99.90;;;;;;5055180;28;20456;-72
2021/06/06 08:54:33;;;;;;;48.78;38.30;;;16.10;99.90;;;;;;5057669;28;20404;-73
2021/06/06 08:57:16;;;;;;;46.03;34.13;;;16.20;99.90;;;;;;5075926;28;20202;-74
2021/06/06 08:59:49;;;;;;;41.23;32.40;;;16.30;99.90;;;;;;5081475;28;20466;-72
2021/06/06 09:02:25;;;;;;;47.13;33.03;;;16.20;99.90;;;;;;5074127;28;20394;-72
2021/06/06 09:04:51;;;;;;;45.90;34.00;;;16.00;99.90;;;;;;5067262;28;20539;-72
2021/06/06 09:07:34;;;;;;;46.40;34.70;;;16.00;99.90;;;;;;5053443;28;20404;-72
2021/06/06 09:10:06;;;;;;;44.77;32.90;;;15.90;99.90;;;;;;5053144;28;20408;-71
2021/06/06 09:12:32;;;;;;;57.20;32.90;;;16.00;99.90;;;;;;5053171;28;20401;-73
2021/06/06 09:14:57;;;;;;;47.43;33.30;;;16.00;99.90;;;;;;5052810;28;20511;-73
2021/06/06 09:17:53;;;;;;;45.23;32.73;;;16.10;99.90;;;;;;5052979;28;20646;-72
2021/06/06 09:20:48;;;;;;;43.60;31.33;;;16.20;99.90;;;;;;5052932;28;20570;-73
2021/06/06 09:23:24;;;;;;;44.97;33.50;;;16.50;99.90;;;;;;5050430;28;20999;-73
2021/06/06 09:26:09;;;;;;;43.47;30.27;;;16.50;99.90;;;;;;5050331;28;20519;-75
2021/06/06 09:28:39;;;;;;;40.93;29.57;;;16.80;99.90;;;;;;5050430;28;20416;-74
2021/06/06 09:31:16;;;;;;;40.23;29.97;;;16.80;99.90;;;;;;5049960;28;20433;-73
2021/06/06 09:33:48;;;;;;;70.70;42.73;;;17.00;99.90;;;;;;5051066;28;20428;-73
2021/06/06 09:36:26;;;;;;;77.53;47.23;;;16.80;99.90;;;;;;5051659;28;20441;-73
2021/06/06 09:39:08;;;;;;;82.50;49.70;;;16.60;99.90;;;;;;5050266;28;20424;-73
2021/06/06 09:41:40;;;;;;;88.50;50.10;;;16.20;99.90;;;;;;5032976;28;20464;-73
2021/06/06 09:44:07;;;;;;;84.57;51.10;;;16.20;99.90;;;;;;5050906;28;20405;-73
2021/06/06 09:46:43;;;;;;;91.87;50.63;;;16.20;99.90;;;;;;5050990;28;20444;-73
2021/06/06 09:49:29;;;;;;;88.17;51.87;;;16.30;99.90;;;;;;5051478;28;20713;-72
2021/06/06 09:52:09;;;;;;;81.13;49.27;;;16.40;99.90;;;;;;5050524;28;20428;-73
2021/06/06 09:54:35;;;;;;;91.40;50.07;;;16.60;99.90;;;;;;5050905;28;20408;-74
2021/06/06 09:57:05;;;;;;;88.50;51.57;;;16.70;99.90;;;;;;5051174;28;20447;-73
2021/06/06 09:59:34;;;;;;;89.60;50.70;;;16.40;99.90;;;;;;5062564;28;20221;-72
2021/06/06 10:02:20;;;;;;;99.37;54.40;;;16.30;99.90;;;;;;5053860;28;20922;-72
2021/06/06 10:04:46;;;;;;;95.00;51.27;;;16.10;99.90;;;;;;5052612;28;20945;-72
2021/06/06 10:07:32;;;;;;;96.57;53.57;;;16.00;99.90;;;;;;5053262;28;20408;-72
2021/06/06 10:09:59;;;;;;;86.47;49.67;;;16.10;99.90;;;;;;5052808;28;20280;-72
2021/06/06 10:12:25;;;;;;;84.23;48.43;;;16.20;99.90;;;;;;5052087;28;20431;-73
2021/06/06 10:14:52;;;;;;;90.87;50.97;;;16.20;99.90;;;;;;5052926;28;20933;-71
2021/06/06 10:17:28;;;;;;;88.17;51.60;;;16.10;99.90;;;;;;5055008;28;20219;-72
2021/06/06 10:20:02;;;;;;;89.27;52.30;;;16.10;99.90;;;;;;5056880;28;20451;-72
2021/06/06 10:22:33;;;;;;;90.40;52.63;;;16.10;99.90;;;;;;5055443;28;20499;-73
2021/06/06 10:25:10;;;;;;;102.30;55.97;;;15.90;99.90;;;;;;5056596;28;20833;-73
2021/06/06 10:27:39;;;;;;;105.15;56.35;;;15.90;99.90;;;;;;5056458;28;20781;-72
2021/06/06 10:30:05;;;;;;;95.40;55.53;;;15.80;99.90;;;;;;5056698;28;20174;-72
2021/06/06 10:32:36;;;;;;;98.27;54.90;;;15.90;99.90;;;;;;5056084;28;20465;-73
2021/06/06 10:35:14;;;;;;;89.90;52.20;;;15.90;99.90;;;;;;5056572;28;20594;-72
2021/06/06 10:37:50;;;;;;;86.50;50.43;;;16.10;99.90;;;;;;5057012;28;20416;-73
2021/06/06 10:40:32;;;;;;;80.37;49.63;;;16.20;99.90;;;;;;5056260;28;20435;-73
2021/06/06 10:43:12;;;;;;;71.70;43.87;;;16.10;99.90;;;;;;5056487;28;20416;-72
2021/06/06 10:46:09;;;;;;;67.47;45.73;;;16.20;99.90;;;;;;5056646;28;20453;-72
2021/06/06 10:49:01;;;;;;;75.70;44.80;;;16.40;99.90;;;;;;5056201;28;21088;-70
2021/06/06 10:51:34;;;;;;;76.53;43.80;;;16.40;99.90;;;;;;5056031;28;20818;-72
2021/06/06 10:54:05;;;;;;;81.53;48.27;;;16.50;99.90;;;;;;5055992;28;20446;-73
2021/06/06 10:56:52;;;;;;;76.23;47.37;;;16.70;99.90;;;;;;5056418;28;20778;-73
2021/06/06 10:59:29;;;;;;;83.03;48.60;;;16.90;99.90;;;;;;5072994;28;20440;-73
2021/06/06 11:01:55;;;;;;;79.13;48.83;;;17.10;99.90;;;;;;5075754;28;20427;-72
2021/06/06 11:04:27;;;;;;;70.23;44.83;;;17.00;99.90;;;;;;5060571;28;20409;-73
2021/06/06 11:07:17;;;;;;;65.23;39.47;;;17.10;99.90;;;;;;5055838;28;20396;-73
2021/06/06 11:09:56;;;;;;;56.33;35.47;;;17.20;99.90;;;;;;5056667;28;20393;-73
2021/06/06 11:12:33;;;;;;;53.60;34.93;;;17.10;99.90;;;;;;5055479;28;20419;-73
2021/06/06 11:15:00;;;;;;;53.38;38.63;;;17.00;99.90;;;;;;5054915;28;20400;-73
2021/06/06 11:17:40;;;;;;;47.83;33.77;;;17.20;99.90;;;;;;5055789;28;20170;-73
2021/06/06 11:20:15;;;;;;;42.13;32.50;;;17.40;99.90;;;;;;5055863;28;20942;-73
2021/06/06 11:22:47;;;;;;;46.87;29.77;;;17.30;99.90;;;;;;5055072;28;20416;-73
2021/06/06 11:25:44;;;;;;;45.80;30.77;;;17.40;99.90;;;;;;5055845;28;20425;-72
2021/06/06 11:28:38;;;;;;;44.60;32.20;;;17.30;99.90;;;;;;5055097;28;20432;-72
2021/06/06 11:31:21;;;;;;;39.17;28.97;;;17.20;99.90;;;;;;5055423;28;20423;-72
2021/06/06 11:34:21;;;;;;;49.40;32.07;;;17.20;99.90;;;;;;5055108;28;20420;-73
2021/06/06 11:36:46;;;;;;;47.77;31.10;;;17.30;99.90;;;;;;5055395;28;20926;-73
2021/06/06 11:39:33;;;;;;;41.90;31.97;;;17.50;99.90;;;;;;5055426;28;20447;-73
2021/06/06 11:42:00;;;;;;;49.67;33.97;;;17.50;99.90;;;;;;5058503;28;20676;-72
2021/06/06 11:44:38;;;;;;;53.53;35.43;;;17.50;99.90;;;;;;5053934;28;20436;-72
2021/06/06 11:47:16;;;;;;;55.10;37.50;;;17.40;99.90;;;;;;5053769;28;20916;-72
2021/06/06 11:49:52;;;;;;;63.63;39.90;;;17.40;99.90;;;;;;5053699;28;20408;-73
2021/06/06 11:52:24;;;;;;;72.80;49.00;;;17.30;99.90;;;;;;5056081;28;20496;-73
2021/06/06 11:54:55;;;;;;;88.13;51.00;;;17.20;99.90;;;;;;5059491;28;20433;-73
2021/06/06 11:57:29;;;;;;;85.80;54.37;;;17.30;99.90;;;;;;5064309;28;20389;-72
2021/06/06 12:00:21;;;;;;;83.20;51.40;;;17.10;99.90;;;;;;5055476;28;20456;-72
2021/06/06 12:02:47;;;;;;;81.43;52.83;;;17.00;99.90;;;;;;5052977;28;20431;-73
2021/06/06 12:05:16;;;;;;;79.03;47.77;;;17.00;99.90;;;;;;5055224;28;20437;-71
2021/06/06 12:07:44;;;;;;;87.03;52.03;;;17.00;99.90;;;;;;5054967;28;20424;-73
2021/06/06 12:10:29;;;;;;;94.07;56.20;;;17.00;99.90;;;;;;5054522;28;20449;-73
2021/06/06 12:12:58;;;;;;;86.10;50.97;;;17.00;99.90;;;;;;5053867;28;20409;-72
2021/06/06 12:15:32;;;;;;;84.67;51.73;;;17.00;99.90;;;;;;5052078;28;20437;-72
2021/06/06 12:18:14;;;;;;;75.67;48.47;;;17.00;99.90;;;;;;5052314;28;20772;-72
2021/06/06 12:21:13;;;;;;;73.40;47.67;;;16.90;99.90;;;;;;5052327;28;20491;-73
2021/06/06 12:23:43;;;;;;;84.70;54.00;;;16.90;99.90;;;;;;5034555;28;21008;-72
2021/06/06 12:26:24;;;;;;;88.30;56.27;;;17.00;99.90;;;;;;5052169;28;20420;-73
2021/06/06 12:28:55;;;;;;;88.47;54.60;;;16.90;99.90;;;;;;5052819;28;20400;-72
2021/06/06 12:31:34;;;;;;;83.27;52.43;;;16.80;99.90;;;;;;5052477;28;20390;-73
2021/06/06 12:34:28;;;;;;;83.70;56.67;;;16.80;99.90;;;;;;5051412;28;20866;-72
2021/06/06 12:37:03;;;;;;;77.63;52.90;;;16.70;99.90;;;;;;5052484;28;20178;-72
2021/06/06 12:39:29;;;;;;;75.63;47.63;;;16.60;99.90;;;;;;5052455;28;20589;-73
2021/06/06 12:41:59;;;;;;;74.73;47.73;;;16.70;99.90;;;;;;5051367;28;20969;-73
2021/06/06 12:44:34;;;;;;;66.38;44.55;;;16.80;99.90;;;;;;5043164;28;20405;-73